sensor_id;sensor_type;location;lat;lon;timestamp;temperature;humidity
18932;DHT22;9598;50.954;3.112;2023-04-03T00:02:51;5.80;99.90
18932;DHT22;9598;50.954;3.112;2023-04-03T00:07:54;5.80;99.90
18932;DHT22;9598;50.954;3.112;2023-04-03T00:12:56;5.70;99.90
18932;DHT22;9598;50.954;3.112;2023-04-03T00:17:59;5.60;99.90
18932;DHT22;9598;50.954;3.112;2023-04-03T00:23:02;5.60;99.90
18932;DHT22;9598;50.954;3.112;2023-04-03T00:28:04;5.50;99.90
18932;DHT22;9598;50.954;3.112;2023-04-03T00:33:07;5.50;99.90
18932;DHT22;9598;50.954;3.112;2023-04-03T00:38:10;5.50;99.90
18932;DHT22;9598;50.954;3.112;2023-04-03T00:43:14;5.50;99.90
18932;DHT22;9598;50.954;3.112;2023-04-03T00:48:20;5.50;99.90
18932;DHT22;9598;50.954;3.112;2023-04-03T00:53:27;5.30;99.90
18932;DHT22;9598;50.954;3.112;2023-04-03T00:58:40;5.30;99.90
18932;DHT22;9598;50.954;3.112;2023-04-03T01:03:44;5.30;99.90
18932;DHT22;9598;50.954;3.112;2023-04-03T01:08:49;5.20;99.90
18932;DHT22;9598;50.954;3.112;2023-04-03T01:13:53;5.20;99.90
18932;DHT22;9598;50.954;3.112;2023-04-03T01:18:55;5.20;99.90
18932;DHT22;9598;50.954;3.112;2023-04-03T01:24:12;5.10;99.90
18932;DHT22;9598;50.954;3.112;2023-04-03T01:29:18;5.10;99.90
18932;DHT22;9598;50.954;3.112;2023-04-03T01:34:22;5.10;99.90
18932;DHT22;9598;50.954;3.112;2023-04-03T01:39:25;5.10;99.90
18932;DHT22;9598;50.954;3.112;2023-04-03T01:44:27;5.00;99.90
18932;DHT22;9598;50.954;3.112;2023-04-03T01:49:31;5.00;99.90
18932;DHT22;9598;50.954;3.112;2023-04-03T01:54:33;5.00;99.90
18932;DHT22;9598;50.954;3.112;2023-04-03T01:59:36;4.90;99.90
18932;DHT22;9598;50.954;3.112;2023-04-03T02:04:40;4.90;99.90
18932;DHT22;9598;50.954;3.112;2023-04-03T02:09:42;4.80;99.90
18932;DHT22;9598;50.954;3.112;2023-04-03T02:14:44;4.80;99.90
18932;DHT22;9598;50.954;3.112;2023-04-03T02:19:48;4.80;99.90
18932;DHT22;9598;50.954;3.112;2023-04-03T02:24:50;4.70;99.90
18932;DHT22;9598;50.954;3.112;2023-04-03T02:29:52;4.70;99.90
18932;DHT22;9598;50.954;3.112;2023-04-03T02:34:56;4.70;99.90
18932;DHT22;9598;50.954;3.112;2023-04-03T02:39:58;4.70;99.90
18932;DHT22;9598;50.954;3.112;2023-04-03T02:45:02;4.70;99.90
18932;DHT22;9598;50.954;3.112;2023-04-03T02:50:06;4.80;99.90
18932;DHT22;9598;50.954;3.112;2023-04-03T02:55:09;4.80;99.90
18932;DHT22;9598;50.954;3.112;2023-04-03T03:00:15;4.80;99.90
18932;DHT22;9598;50.954;3.112;2023-04-03T03:05:19;4.70;99.90
18932;DHT22;9598;50.954;3.112;2023-04-03T03:10:22;4.70;99.90
18932;DHT22;9598;50.954;3.112;2023-04-03T03:15:24;4.60;99.90
18932;DHT22;9598;50.954;3.112;2023-04-03T03:20:27;4.60;99.90
18932;DHT22;9598;50.954;3.112;2023-04-03T03:25:30;4.60;99.90
18932;DHT22;9598;50.954;3.112;2023-04-03T03:30:32;4.60;99.90
18932;DHT22;9598;50.954;3.112;2023-04-03T03:35:36;4.50;99.90
18932;DHT22;9598;50.954;3.112;2023-04-03T03:40:38;4.50;99.90
18932;DHT22;9598;50.954;3.112;2023-04-03T03:45:41;4.50;99.90
18932;DHT22;9598;50.954;3.112;2023-04-03T03:50:44;4.50;99.90
18932;DHT22;9598;50.954;3.112;2023-04-03T03:55:47;4.50;99.90
18932;DHT22;9598;50.954;3.112;2023-04-03T04:00:50;4.50;99.90
18932;DHT22;9598;50.954;3.112;2023-04-03T04:05:54;4.50;99.90
18932;DHT22;9598;50.954;3.112;2023-04-03T04:10:57;4.50;99.90
18932;DHT22;9598;50.954;3.112;2023-04-03T04:15:59;4.50;99.90
18932;DHT22;9598;50.954;3.112;2023-04-03T04:21:02;4.50;99.90
18932;DHT22;9598;50.954;3.112;2023-04-03T04:26:05;4.50;99.90
18932;DHT22;9598;50.954;3.112;2023-04-03T04:31:10;4.50;99.90
18932;DHT22;9598;50.954;3.112;2023-04-03T04:36:14;4.50;99.90
18932;DHT22;9598;50.954;3.112;2023-04-03T04:41:19;4.40;99.90
18932;DHT22;9598;50.954;3.112;2023-04-03T04:46:23;4.50;99.90
18932;DHT22;9598;50.954;3.112;2023-04-03T04:51:31;4.40;99.90
18932;DHT22;9598;50.954;3.112;2023-04-03T04:56:34;4.40;99.90
18932;DHT22;9598;50.954;3.112;2023-04-03T05:01:36;4.40;99.90
18932;DHT22;9598;50.954;3.112;2023-04-03T05:06:46;4.40;99.90
18932;DHT22;9598;50.954;3.112;2023-04-03T05:11:53;4.40;99.90
18932;DHT22;9598;50.954;3.112;2023-04-03T05:17:00;4.40;99.90
18932;DHT22;9598;50.954;3.112;2023-04-03T05:22:08;4.40;99.90
18932;DHT22;9598;50.954;3.112;2023-04-03T05:27:11;4.30;99.90
18932;DHT22;9598;50.954;3.112;2023-04-03T05:32:17;4.30;99.90
18932;DHT22;9598;50.954;3.112;2023-04-03T05:37:24;4.30;99.90
18932;DHT22;9598;50.954;3.112;2023-04-03T05:42:30;4.20;99.90
18932;DHT22;9598;50.954;3.112;2023-04-03T05:47:33;4.20;99.90
18932;DHT22;9598;50.954;3.112;2023-04-03T05:52:44;4.30;99.90
18932;DHT22;9598;50.954;3.112;2023-04-03T05:57:48;4.30;99.90
18932;DHT22;9598;50.954;3.112;2023-04-03T06:02:51;4.30;99.90
18932;DHT22;9598;50.954;3.112;2023-04-03T06:07:58;4.30;99.90
18932;DHT22;9598;50.954;3.112;2023-04-03T06:13:01;4.30;99.90
18932;DHT22;9598;50.954;3.112;2023-04-03T06:18:03;4.40;99.90
18932;DHT22;9598;50.954;3.112;2023-04-03T06:23:07;4.40;99.90
18932;DHT22;9598;50.954;3.112;2023-04-03T06:28:11;4.40;99.90
18932;DHT22;9598;50.954;3.112;2023-04-03T06:33:13;4.50;99.90
18932;DHT22;9598;50.954;3.112;2023-04-03T06:38:16;4.50;99.90
18932;DHT22;9598;50.954;3.112;2023-04-03T06:43:19;4.60;99.90
18932;DHT22;9598;50.954;3.112;2023-04-03T06:48:23;4.70;99.90
18932;DHT22;9598;50.954;3.112;2023-04-03T06:53:27;4.70;99.90
18932;DHT22;9598;50.954;3.112;2023-04-03T06:58:29;4.90;99.90
18932;DHT22;9598;50.954;3.112;2023-04-03T07:03:31;5.00;99.90
18932;DHT22;9598;50.954;3.112;2023-04-03T07:08:34;5.20;99.90
18932;DHT22;9598;50.954;3.112;2023-04-03T07:13:37;5.30;99.90
18932;DHT22;9598;50.954;3.112;2023-04-03T07:18:39;5.50;99.90
18932;DHT22;9598;50.954;3.112;2023-04-03T07:23:43;5.60;99.90
18932;DHT22;9598;50.954;3.112;2023-04-03T07:28:46;5.80;99.90
18932;DHT22;9598;50.954;3.112;2023-04-03T07:33:49;5.90;99.90
18932;DHT22;9598;50.954;3.112;2023-04-03T07:38:52;6.20;99.90
18932;DHT22;9598;50.954;3.112;2023-04-03T07:43:54;6.40;99.90
18932;DHT22;9598;50.954;3.112;2023-04-03T07:48:57;6.60;99.90
18932;DHT22;9598;50.954;3.112;2023-04-03T07:54:02;6.80;99.90
18932;DHT22;9598;50.954;3.112;2023-04-03T07:59:04;7.00;99.90
18932;DHT22;9598;50.954;3.112;2023-04-03T08:04:07;7.30;99.90
18932;DHT22;9598;50.954;3.112;2023-04-03T08:09:10;7.50;99.90
18932;DHT22;9598;50.954;3.112;2023-04-03T08:14:13;7.60;99.90
18932;DHT22;9598;50.954;3.112;2023-04-03T08:19:19;7.70;99.90
18932;DHT22;9598;50.954;3.112;2023-04-03T08:24:22;7.80;99.90
18932;DHT22;9598;50.954;3.112;2023-04-03T08:29:25;8.10;99.90
18932;DHT22;9598;50.954;3.112;2023-04-03T08:34:31;8.20;99.90
18932;DHT22;9598;50.954;3.112;2023-04-03T08:39:36;8.40;99.90
18932;DHT22;9598;50.954;3.112;2023-04-03T08:44:52;8.60;99.90
18932;DHT22;9598;50.954;3.112;2023-04-03T08:49:59;8.70;99.90
18932;DHT22;9598;50.954;3.112;2023-04-03T08:55:05;8.90;99.90
18932;DHT22;9598;50.954;3.112;2023-04-03T09:00:18;9.20;99.90
18932;DHT22;9598;50.954;3.112;2023-04-03T09:05:32;9.30;99.90
18932;DHT22;9598;50.954;3.112;2023-04-03T09:10:39;9.40;99.90
18932;DHT22;9598;50.954;3.112;2023-04-03T09:15:44;9.60;99.90
18932;DHT22;9598;50.954;3.112;2023-04-03T09:20:49;9.70;99.90
18932;DHT22;9598;50.954;3.112;2023-04-03T09:26:01;9.70;99.90
18932;DHT22;9598;50.954;3.112;2023-04-03T09:31:16;9.90;99.90
18932;DHT22;9598;50.954;3.112;2023-04-03T09:36:39;10.10;99.90
18932;DHT22;9598;50.954;3.112;2023-04-03T09:41:55;10.10;99.90
18932;DHT22;9598;50.954;3.112;2023-04-03T09:46:58;10.10;99.90
18932;DHT22;9598;50.954;3.112;2023-04-03T09:52:18;10.30;99.90
18932;DHT22;9598;50.954;3.112;2023-04-03T09:57:22;10.30;99.90
18932;DHT22;9598;50.954;3.112;2023-04-03T10:02:35;10.20;99.90
18932;DHT22;9598;50.954;3.112;2023-04-03T10:07:38;10.10;99.90
18932;DHT22;9598;50.954;3.112;2023-04-03T10:12:42;10.40;99.90
18932;DHT22;9598;50.954;3.112;2023-04-03T10:17:51;10.60;99.90
18932;DHT22;9598;50.954;3.112;2023-04-03T10:23:02;10.90;99.90
18932;DHT22;9598;50.954;3.112;2023-04-03T10:28:11;11.10;99.90
18932;DHT22;9598;50.954;3.112;2023-04-03T10:33:23;11.10;99.90
18932;DHT22;9598;50.954;3.112;2023-04-03T10:38:34;11.10;99.90
18932;DHT22;9598;50.954;3.112;2023-04-03T10:43:44;11.20;99.90
18932;DHT22;9598;50.954;3.112;2023-04-03T10:49:03;11.10;99.90
18932;DHT22;9598;50.954;3.112;2023-04-03T10:54:11;11.20;99.90
18932;DHT22;9598;50.954;3.112;2023-04-03T10:59:27;11.40;99.90
18932;DHT22;9598;50.954;3.112;2023-04-03T11:04:35;11.30;99.90
18932;DHT22;9598;50.954;3.112;2023-04-03T11:09:41;11.30;99.90
18932;DHT22;9598;50.954;3.112;2023-04-03T11:14:48;11.30;99.90
18932;DHT22;9598;50.954;3.112;2023-04-03T11:20:00;11.30;99.90
18932;DHT22;9598;50.954;3.112;2023-04-03T11:25:06;11.50;99.90
18932;DHT22;9598;50.954;3.112;2023-04-03T11:30:22;11.70;99.90
18932;DHT22;9598;50.954;3.112;2023-04-03T11:35:26;11.80;99.90
18932;DHT22;9598;50.954;3.112;2023-04-03T11:40:30;11.70;99.90
18932;DHT22;9598;50.954;3.112;2023-04-03T11:45:38;11.60;99.90
18932;DHT22;9598;50.954;3.112;2023-04-03T11:50:43;11.50;99.90
18932;DHT22;9598;50.954;3.112;2023-04-03T11:55:59;11.70;99.90
18932;DHT22;9598;50.954;3.112;2023-04-03T12:01:07;11.80;99.90
18932;DHT22;9598;50.954;3.112;2023-04-03T12:06:43;11.90;99.90
18932;DHT22;9598;50.954;3.112;2023-04-03T12:11:45;11.70;99.90
18932;DHT22;9598;50.954;3.112;2023-04-03T12:16:48;11.90;99.90
18932;DHT22;9598;50.954;3.112;2023-04-03T12:22:10;11.90;99.90
18932;DHT22;9598;50.954;3.112;2023-04-03T12:27:33;12.10;99.90
18932;DHT22;9598;50.954;3.112;2023-04-03T12:32:46;12.20;99.90
18932;DHT22;9598;50.954;3.112;2023-04-03T12:43:42;12.20;99.90
18932;DHT22;9598;50.954;3.112;2023-04-03T12:48:50;12.10;99.90
18932;DHT22;9598;50.954;3.112;2023-04-03T12:54:00;12.10;99.90
18932;DHT22;9598;50.954;3.112;2023-04-03T12:59:16;12.30;99.90
18932;DHT22;9598;50.954;3.112;2023-04-03T13:04:20;12.40;99.90
18932;DHT22;9598;50.954;3.112;2023-04-03T13:09:25;12.50;99.90
18932;DHT22;9598;50.954;3.112;2023-04-03T13:14:28;12.60;99.90
18932;DHT22;9598;50.954;3.112;2023-04-03T13:19:33;12.60;99.90
18932;DHT22;9598;50.954;3.112;2023-04-03T13:24:37;12.60;99.40
18932;DHT22;9598;50.954;3.112;2023-04-03T13:29:40;12.60;99.90
18932;DHT22;9598;50.954;3.112;2023-04-03T13:34:44;12.70;99.90
18932;DHT22;9598;50.954;3.112;2023-04-03T13:39:57;12.70;99.90
18932;DHT22;9598;50.954;3.112;2023-04-03T13:45:17;12.50;99.90
18932;DHT22;9598;50.954;3.112;2023-04-03T13:50:23;12.60;99.90
18932;DHT22;9598;50.954;3.112;2023-04-03T13:55:29;12.60;99.90
18932;DHT22;9598;50.954;3.112;2023-04-03T14:00:37;12.60;99.90
18932;DHT22;9598;50.954;3.112;2023-04-03T14:05:42;12.50;99.90
18932;DHT22;9598;50.954;3.112;2023-04-03T14:10:45;12.50;99.90
18932;DHT22;9598;50.954;3.112;2023-04-03T14:15:50;12.60;99.90
18932;DHT22;9598;50.954;3.112;2023-04-03T14:20:54;12.60;99.90
18932;DHT22;9598;50.954;3.112;2023-04-03T14:25:56;12.50;99.90
18932;DHT22;9598;50.954;3.112;2023-04-03T14:30:58;12.50;99.90
18932;DHT22;9598;50.954;3.112;2023-04-03T14:36:10;12.60;99.90
18932;DHT22;9598;50.954;3.112;2023-04-03T14:41:14;12.50;99.90
18932;DHT22;9598;50.954;3.112;2023-04-03T14:46:19;12.30;99.90
18932;DHT22;9598;50.954;3.112;2023-04-03T14:51:24;12.20;99.90
18932;DHT22;9598;50.954;3.112;2023-04-03T14:56:28;12.30;99.90
18932;DHT22;9598;50.954;3.112;2023-04-03T15:01:31;12.30;99.90
18932;DHT22;9598;50.954;3.112;2023-04-03T15:06:34;12.20;99.90
18932;DHT22;9598;50.954;3.112;2023-04-03T15:11:36;12.30;99.90
18932;DHT22;9598;50.954;3.112;2023-04-03T15:16:39;12.30;99.90
18932;DHT22;9598;50.954;3.112;2023-04-03T15:21:42;12.40;98.80
18932;DHT22;9598;50.954;3.112;2023-04-03T15:26:44;12.40;99.90
18932;DHT22;9598;50.954;3.112;2023-04-03T15:31:47;12.40;98.70
18932;DHT22;9598;50.954;3.112;2023-04-03T15:36:51;12.30;97.00
18932;DHT22;9598;50.954;3.112;2023-04-03T15:41:54;12.20;97.90
18932;DHT22;9598;50.954;3.112;2023-04-03T15:47:01;12.10;97.00
18932;DHT22;9598;50.954;3.112;2023-04-03T15:52:04;12.10;99.90
18932;DHT22;9598;50.954;3.112;2023-04-03T15:57:06;12.00;99.00
18932;DHT22;9598;50.954;3.112;2023-04-03T16:02:10;12.10;99.80
18932;DHT22;9598;50.954;3.112;2023-04-03T16:07:15;12.00;98.20
18932;DHT22;9598;50.954;3.112;2023-04-03T16:12:17;12.00;98.70
18932;DHT22;9598;50.954;3.112;2023-04-03T16:17:20;11.80;97.30
18932;DHT22;9598;50.954;3.112;2023-04-03T16:22:24;11.80;96.80
18932;DHT22;9598;50.954;3.112;2023-04-03T16:27:27;11.80;98.80
18932;DHT22;9598;50.954;3.112;2023-04-03T16:32:31;11.80;99.50
18932;DHT22;9598;50.954;3.112;2023-04-03T16:37:35;11.70;98.20
18932;DHT22;9598;50.954;3.112;2023-04-03T16:42:37;11.80;99.90
18932;DHT22;9598;50.954;3.112;2023-04-03T16:47:39;11.80;98.70
18932;DHT22;9598;50.954;3.112;2023-04-03T16:52:45;11.70;97.10
18932;DHT22;9598;50.954;3.112;2023-04-03T16:57:47;11.60;97.60
18932;DHT22;9598;50.954;3.112;2023-04-03T17:02:49;11.50;97.70
18932;DHT22;9598;50.954;3.112;2023-04-03T17:07:53;11.50;96.50
18932;DHT22;9598;50.954;3.112;2023-04-03T17:12:55;11.40;97.70
18932;DHT22;9598;50.954;3.112;2023-04-03T17:17:57;11.40;97.20
18932;DHT22;9598;50.954;3.112;2023-04-03T17:23:00;11.30;95.80
18932;DHT22;9598;50.954;3.112;2023-04-03T17:28:02;11.30;96.00
18932;DHT22;9598;50.954;3.112;2023-04-03T17:33:05;11.20;96.40
18932;DHT22;9598;50.954;3.112;2023-04-03T17:38:08;11.10;98.20
18932;DHT22;9598;50.954;3.112;2023-04-03T17:43:10;11.10;98.40
18932;DHT22;9598;50.954;3.112;2023-04-03T17:48:12;11.10;99.90
18932;DHT22;9598;50.954;3.112;2023-04-03T17:53:16;11.00;99.90
18932;DHT22;9598;50.954;3.112;2023-04-03T17:58:18;11.00;99.90
18932;DHT22;9598;50.954;3.112;2023-04-03T18:03:20;10.90;99.90
18932;DHT22;9598;50.954;3.112;2023-04-03T18:08:24;10.80;99.90
18932;DHT22;9598;50.954;3.112;2023-04-03T18:13:26;10.60;99.90
18932;DHT22;9598;50.954;3.112;2023-04-03T18:18:28;10.50;99.90
18932;DHT22;9598;50.954;3.112;2023-04-03T18:23:33;10.50;99.90
18932;DHT22;9598;50.954;3.112;2023-04-03T18:28:37;10.40;99.90
18932;DHT22;9598;50.954;3.112;2023-04-03T18:33:40;10.30;99.90
18932;DHT22;9598;50.954;3.112;2023-04-03T18:38:44;10.20;99.90
18932;DHT22;9598;50.954;3.112;2023-04-03T18:43:46;10.10;99.90
18932;DHT22;9598;50.954;3.112;2023-04-03T18:48:48;9.80;99.90
18932;DHT22;9598;50.954;3.112;2023-04-03T18:53:52;9.70;99.90
18932;DHT22;9598;50.954;3.112;2023-04-03T18:58:54;9.50;99.90
18932;DHT22;9598;50.954;3.112;2023-04-03T19:03:56;9.30;99.90
18932;DHT22;9598;50.954;3.112;2023-04-03T19:08:59;9.20;99.90
18932;DHT22;9598;50.954;3.112;2023-04-03T19:14:02;9.20;99.90
18932;DHT22;9598;50.954;3.112;2023-04-03T19:19:05;9.10;99.90
18932;DHT22;9598;50.954;3.112;2023-04-03T19:24:12;9.10;99.90
18932;DHT22;9598;50.954;3.112;2023-04-03T19:29:14;9.00;99.90
18932;DHT22;9598;50.954;3.112;2023-04-03T19:34:17;8.80;99.90
18932;DHT22;9598;50.954;3.112;2023-04-03T19:39:21;8.70;99.90
18932;DHT22;9598;50.954;3.112;2023-04-03T19:44:23;8.70;99.90
18932;DHT22;9598;50.954;3.112;2023-04-03T19:49:26;8.70;99.90
18932;DHT22;9598;50.954;3.112;2023-04-03T19:54:30;8.60;99.90
18932;DHT22;9598;50.954;3.112;2023-04-03T19:59:32;8.50;99.90
18932;DHT22;9598;50.954;3.112;2023-04-03T20:04:34;8.50;99.90
18932;DHT22;9598;50.954;3.112;2023-04-03T20:09:37;8.40;99.90
18932;DHT22;9598;50.954;3.112;2023-04-03T20:14:40;8.30;99.90
18932;DHT22;9598;50.954;3.112;2023-04-03T20:19:43;8.30;99.90
18932;DHT22;9598;50.954;3.112;2023-04-03T20:24:46;8.30;99.90
18932;DHT22;9598;50.954;3.112;2023-04-03T20:29:49;8.20;99.90
18932;DHT22;9598;50.954;3.112;2023-04-03T20:34:51;8.10;99.90
18932;DHT22;9598;50.954;3.112;2023-04-03T20:39:55;8.10;99.90
18932;DHT22;9598;50.954;3.112;2023-04-03T20:44:57;8.10;99.90
18932;DHT22;9598;50.954;3.112;2023-04-03T20:49:59;8.10;99.90
18932;DHT22;9598;50.954;3.112;2023-04-03T20:55:03;7.90;99.90
18932;DHT22;9598;50.954;3.112;2023-04-03T21:00:07;7.90;99.90
18932;DHT22;9598;50.954;3.112;2023-04-03T21:05:09;7.80;99.90
18932;DHT22;9598;50.954;3.112;2023-04-03T21:20:56;7.70;99.90
18932;DHT22;9598;50.954;3.112;2023-04-03T21:25:59;7.60;99.90
18932;DHT22;9598;50.954;3.112;2023-04-03T21:31:01;7.40;99.90
18932;DHT22;9598;50.954;3.112;2023-04-03T21:36:05;7.30;99.90
18932;DHT22;9598;50.954;3.112;2023-04-03T21:41:08;7.20;99.90
18932;DHT22;9598;50.954;3.112;2023-04-03T21:46:10;7.20;99.90
18932;DHT22;9598;50.954;3.112;2023-04-03T21:51:14;7.20;99.90
18932;DHT22;9598;50.954;3.112;2023-04-03T21:56:17;7.10;99.90
18932;DHT22;9598;50.954;3.112;2023-04-03T22:01:19;6.90;99.90
18932;DHT22;9598;50.954;3.112;2023-04-03T22:06:24;6.90;99.90
18932;DHT22;9598;50.954;3.112;2023-04-03T22:11:26;6.80;99.90
18932;DHT22;9598;50.954;3.112;2023-04-03T22:16:29;6.70;99.90
18932;DHT22;9598;50.954;3.112;2023-04-03T22:21:32;6.70;99.90
18932;DHT22;9598;50.954;3.112;2023-04-03T22:26:34;6.70;99.90
18932;DHT22;9598;50.954;3.112;2023-04-03T22:31:37;6.60;99.90
18932;DHT22;9598;50.954;3.112;2023-04-03T22:36:42;6.60;99.90
18932;DHT22;9598;50.954;3.112;2023-04-03T22:41:44;6.60;99.90
18932;DHT22;9598;50.954;3.112;2023-04-03T22:46:46;6.60;99.90
18932;DHT22;9598;50.954;3.112;2023-04-03T22:51:50;6.60;99.90
18932;DHT22;9598;50.954;3.112;2023-04-03T22:56:52;6.70;99.90
18932;DHT22;9598;50.954;3.112;2023-04-03T23:01:54;6.60;99.90
18932;DHT22;9598;50.954;3.112;2023-04-03T23:06:57;6.50;99.90
18932;DHT22;9598;50.954;3.112;2023-04-03T23:12:00;6.30;99.90
18932;DHT22;9598;50.954;3.112;2023-04-03T23:17:02;6.30;99.90
18932;DHT22;9598;50.954;3.112;2023-04-03T23:22:07;6.40;99.90
18932;DHT22;9598;50.954;3.112;2023-04-03T23:27:11;6.40;99.90
18932;DHT22;9598;50.954;3.112;2023-04-03T23:32:13;6.40;99.90
18932;DHT22;9598;50.954;3.112;2023-04-03T23:37:17;6.40;99.90
18932;DHT22;9598;50.954;3.112;2023-04-03T23:42:19;6.40;99.90
18932;DHT22;9598;50.954;3.112;2023-04-03T23:47:21;6.30;99.90
18932;DHT22;9598;50.954;3.112;2023-04-03T23:52:24;6.30;99.90
18932;DHT22;9598;50.954;3.112;2023-04-03T23:57:27;6.30;99.90
